sensor_id;sensor_type;location;lat;lon;timestamp;pressure;altitude;pressure_sealevel;temperature;humidity
29385;BME280;16367;48.736;9.218;2023-02-10T00:01:37;-23126.03;;;-1.33;89.09
29385;BME280;16367;48.736;9.218;2023-02-10T00:03:41;-23125.53;;;-1.34;89.11
29385;BME280;16367;48.736;9.218;2023-02-10T00:05:44;-23125.38;;;-1.35;89.05
29385;BME280;16367;48.736;9.218;2023-02-10T00:07:48;-23124.09;;;-1.39;90.19
29385;BME280;16367;48.736;9.218;2023-02-10T00:09:51;-23129.69;;;-1.21;89.95
29385;BME280;16367;48.736;9.218;2023-02-10T00:11:54;-23127.47;;;-1.28;90.23
29385;BME280;16367;48.736;9.218;2023-02-10T00:14:00;-23126.03;;;-1.33;90.30
29385;BME280;16367;48.736;9.218;2023-02-10T00:16:05;-23125.22;;;-1.35;90.54
29385;BME280;16367;48.736;9.218;2023-02-10T00:18:08;-23123.63;;;-1.40;91.11
29385;BME280;16367;48.736;9.218;2023-02-10T00:20:11;-23120.59;;;-1.50;92.22
29385;BME280;16367;48.736;9.218;2023-02-10T00:22:14;-23115.78;;;-1.65;93.01
29385;BME280;16367;48.736;9.218;2023-02-10T00:24:18;-23114.34;;;-1.70;93.37
29385;BME280;16367;48.736;9.218;2023-02-10T00:26:21;-23117.88;;;-1.59;93.47
29385;BME280;16367;48.736;9.218;2023-02-10T00:28:23;-23115.16;;;-1.67;92.98
29385;BME280;16367;48.736;9.218;2023-02-10T00:30:26;-23115.16;;;-1.67;93.17
29385;BME280;16367;48.736;9.218;2023-02-10T00:32:29;-23113.22;;;-1.73;94.36
29385;BME280;16367;48.736;9.218;2023-02-10T00:34:32;-23110.97;;;-1.80;94.79
29385;BME280;16367;48.736;9.218;2023-02-10T00:36:34;-23112.91;;;-1.74;94.23
29385;BME280;16367;48.736;9.218;2023-02-10T00:38:39;-23109.06;;;-1.86;95.41
29385;BME280;16367;48.736;9.218;2023-02-10T00:40:43;-23106.19;;;-1.95;94.95
29385;BME280;16367;48.736;9.218;2023-02-10T00:42:46;-23102.66;;;-2.06;96.09
29385;BME280;16367;48.736;9.218;2023-02-10T00:44:49;-23100.91;;;-2.12;96.68
29385;BME280;16367;48.736;9.218;2023-02-10T00:46:52;-23098.50;;;-2.19;97.29
29385;BME280;16367;48.736;9.218;2023-02-10T00:48:54;-23098.81;;;-2.18;97.56
29385;BME280;16367;48.736;9.218;2023-02-10T00:50:57;-23098.97;;;-2.18;97.31
29385;BME280;16367;48.736;9.218;2023-02-10T00:53:00;-23096.91;;;-2.24;97.17
29385;BME280;16367;48.736;9.218;2023-02-10T00:55:03;-23097.38;;;-2.23;97.87
29385;BME280;16367;48.736;9.218;2023-02-10T00:57:07;-23095.47;;;-2.29;98.35
29385;BME280;16367;48.736;9.218;2023-02-10T00:59:11;-23090.97;;;-2.43;98.95
29385;BME280;16367;48.736;9.218;2023-02-10T01:01:15;-23095.31;;;-2.30;100.00
29385;BME280;16367;48.736;9.218;2023-02-10T01:03:19;-23097.53;;;-2.22;99.38
29385;BME280;16367;48.736;9.218;2023-02-10T01:05:22;-23095.47;;;-2.29;99.54
29385;BME280;16367;48.736;9.218;2023-02-10T01:07:25;-23095.94;;;-2.28;99.45
29385;BME280;16367;48.736;9.218;2023-02-10T01:09:28;-23092.09;;;-2.40;100.00
29385;BME280;16367;48.736;9.218;2023-02-10T01:11:31;-23088.25;;;-2.52;100.00
29385;BME280;16367;48.736;9.218;2023-02-10T01:13:36;-23088.41;;;-2.51;100.00
29385;BME280;16367;48.736;9.218;2023-02-10T01:15:41;-23089.06;;;-2.49;100.00
29385;BME280;16367;48.736;9.218;2023-02-10T01:17:44;-23090.81;;;-2.44;100.00
29385;BME280;16367;48.736;9.218;2023-02-10T01:19:47;-23088.75;;;-2.50;100.00
29385;BME280;16367;48.736;9.218;2023-02-10T01:21:52;-23091.31;;;-2.42;100.00
29385;BME280;16367;48.736;9.218;2023-02-10T01:23:55;-23087.63;;;-2.54;100.00
29385;BME280;16367;48.736;9.218;2023-02-10T01:25:58;-23090.50;;;-2.45;100.00
29385;BME280;16367;48.736;9.218;2023-02-10T01:28:02;-23092.41;;;-2.39;100.00
29385;BME280;16367;48.736;9.218;2023-02-10T01:30:07;-23083.13;;;-2.68;100.00
29385;BME280;16367;48.736;9.218;2023-02-10T01:32:10;-23083.63;;;-2.66;100.00
29385;BME280;16367;48.736;9.218;2023-02-10T01:34:13;-23083.13;;;-2.68;100.00
29385;BME280;16367;48.736;9.218;2023-02-10T01:36:17;-23082.50;;;-2.70;100.00
29385;BME280;16367;48.736;9.218;2023-02-10T01:38:20;-23081.53;;;-2.73;100.00
29385;BME280;16367;48.736;9.218;2023-02-10T01:40:24;-23081.22;;;-2.74;100.00
29385;BME280;16367;48.736;9.218;2023-02-10T01:42:27;-23078.97;;;-2.81;100.00
29385;BME280;16367;48.736;9.218;2023-02-10T01:47:21;-23078.50;;;-2.82;100.00
29385;BME280;16367;48.736;9.218;2023-02-10T01:49:29;-23078.16;;;-2.83;100.00
29385;BME280;16367;48.736;9.218;2023-02-10T01:51:40;-23079.94;;;-2.78;100.00
29385;BME280;16367;48.736;9.218;2023-02-10T01:53:44;-23079.63;;;-2.79;100.00
29385;BME280;16367;48.736;9.218;2023-02-10T01:55:48;-23078.97;;;-2.81;100.00
29385;BME280;16367;48.736;9.218;2023-02-10T01:57:52;-23074.81;;;-2.94;100.00
29385;BME280;16367;48.736;9.218;2023-02-10T01:59:56;-23072.56;;;-3.01;100.00
29385;BME280;16367;48.736;9.218;2023-02-10T02:02:01;-23071.59;;;-3.04;100.00
29385;BME280;16367;48.736;9.218;2023-02-10T02:04:09;-23070.97;;;-3.06;100.00
29385;BME280;16367;48.736;9.218;2023-02-10T02:06:12;-23072.56;;;-3.01;100.00
29385;BME280;16367;48.736;9.218;2023-02-10T02:08:16;-23070.97;;;-3.06;100.00
29385;BME280;16367;48.736;9.218;2023-02-10T02:10:22;-23073.03;;;-2.99;100.00
29385;BME280;16367;48.736;9.218;2023-02-10T02:12:31;-23076.25;;;-2.89;100.00
29385;BME280;16367;48.736;9.218;2023-02-10T02:14:39;-23072.88;;;-3.00;100.00
29385;BME280;16367;48.736;9.218;2023-02-10T02:16:54;-23076.09;;;-2.90;100.00
29385;BME280;16367;48.736;9.218;2023-02-10T02:19:05;-23076.25;;;-2.89;100.00
29385;BME280;16367;48.736;9.218;2023-02-10T02:23:55;-23075.13;;;-2.93;100.00
29385;BME280;16367;48.736;9.218;2023-02-10T02:26:24;-23069.22;;;-3.12;100.00
29385;BME280;16367;48.736;9.218;2023-02-10T02:31:59;-23071.28;;;-3.05;100.00
29385;BME280;16367;48.736;9.218;2023-02-10T02:34:06;-23071.59;;;-3.04;100.00
29385;BME280;16367;48.736;9.218;2023-02-10T02:36:16;-23068.41;;;-3.14;100.00
29385;BME280;16367;48.736;9.218;2023-02-10T02:38:21;-23070.97;;;-3.06;100.00
29385;BME280;16367;48.736;9.218;2023-02-10T02:40:24;-23070.50;;;-3.08;100.00
29385;BME280;16367;48.736;9.218;2023-02-10T02:42:28;-23075.13;;;-2.93;100.00
29385;BME280;16367;48.736;9.218;2023-02-10T02:44:31;-23076.09;;;-2.90;100.00
29385;BME280;16367;48.736;9.218;2023-02-10T02:46:46;-23077.38;;;-2.86;100.00
29385;BME280;16367;48.736;9.218;2023-02-10T02:49:02;-23077.06;;;-2.87;100.00
29385;BME280;16367;48.736;9.218;2023-02-10T02:51:13;-23076.72;;;-2.88;100.00
29385;BME280;16367;48.736;9.218;2023-02-10T02:53:23;-23083.28;;;-2.67;100.00
29385;BME280;16367;48.736;9.218;2023-02-10T02:55:32;-23085.38;;;-2.61;100.00
29385;BME280;16367;48.736;9.218;2023-02-10T02:57:43;-23085.06;;;-2.62;100.00
29385;BME280;16367;48.736;9.218;2023-02-10T02:59:50;-23083.13;;;-2.68;100.00
29385;BME280;16367;48.736;9.218;2023-02-10T03:01:56;-23080.91;;;-2.75;100.00
29385;BME280;16367;48.736;9.218;2023-02-10T03:04:02;-23083.63;;;-2.66;100.00
29385;BME280;16367;48.736;9.218;2023-02-10T03:06:06;-23081.53;;;-2.73;100.00
29385;BME280;16367;48.736;9.218;2023-02-10T03:08:09;-23080.56;;;-2.76;100.00
29385;BME280;16367;48.736;9.218;2023-02-10T03:12:15;-23082.50;;;-2.70;100.00
29385;BME280;16367;48.736;9.218;2023-02-10T03:14:17;-23082.50;;;-2.70;100.00
29385;BME280;16367;48.736;9.218;2023-02-10T03:16:20;-23080.91;;;-2.75;100.00
29385;BME280;16367;48.736;9.218;2023-02-10T03:18:23;-23079.78;;;-2.78;100.00
29385;BME280;16367;48.736;9.218;2023-02-10T03:20:27;-23078.66;;;-2.82;100.00
29385;BME280;16367;48.736;9.218;2023-02-10T03:22:30;-23080.25;;;-2.77;100.00
29385;BME280;16367;48.736;9.218;2023-02-10T03:24:32;-23079.94;;;-2.78;100.00
29385;BME280;16367;48.736;9.218;2023-02-10T03:26:35;-23083.78;;;-2.66;100.00
29385;BME280;16367;48.736;9.218;2023-02-10T03:28:38;-23085.38;;;-2.61;100.00
29385;BME280;16367;48.736;9.218;2023-02-10T03:30:41;-23081.22;;;-2.74;100.00
29385;BME280;16367;48.736;9.218;2023-02-10T03:32:51;-23077.38;;;-2.86;100.00
29385;BME280;16367;48.736;9.218;2023-02-10T03:34:54;-23075.78;;;-2.91;100.00
29385;BME280;16367;48.736;9.218;2023-02-10T03:36:58;-23077.06;;;-2.87;100.00
29385;BME280;16367;48.736;9.218;2023-02-10T03:39:01;-23075.94;;;-2.90;100.00
29385;BME280;16367;48.736;9.218;2023-02-10T03:41:04;-23074.81;;;-2.94;100.00
29385;BME280;16367;48.736;9.218;2023-02-10T03:43:07;-23075.59;;;-2.91;100.00
29385;BME280;16367;48.736;9.218;2023-02-10T03:45:10;-23069.69;;;-3.10;100.00
29385;BME280;16367;48.736;9.218;2023-02-10T03:47:12;-23072.88;;;-3.00;100.00
29385;BME280;16367;48.736;9.218;2023-02-10T03:49:15;-23072.41;;;-3.02;100.00
29385;BME280;16367;48.736;9.218;2023-02-10T03:51:18;-23071.59;;;-3.04;100.00
29385;BME280;16367;48.736;9.218;2023-02-10T03:53:22;-23072.56;;;-3.01;100.00
29385;BME280;16367;48.736;9.218;2023-02-10T03:55:25;-23072.56;;;-3.01;100.00
29385;BME280;16367;48.736;9.218;2023-02-10T03:57:27;-23074.66;;;-2.94;100.00
29385;BME280;16367;48.736;9.218;2023-02-10T03:59:30;-23069.22;;;-3.12;100.00
29385;BME280;16367;48.736;9.218;2023-02-10T04:01:33;-23069.84;;;-3.10;100.00
29385;BME280;16367;48.736;9.218;2023-02-10T04:03:36;-23067.44;;;-3.17;100.00
29385;BME280;16367;48.736;9.218;2023-02-10T04:05:38;-23067.13;;;-3.18;100.00
29385;BME280;16367;48.736;9.218;2023-02-10T04:07:41;-23066.00;;;-3.22;100.00
29385;BME280;16367;48.736;9.218;2023-02-10T04:09:45;-23062.81;;;-3.32;100.00
29385;BME280;16367;48.736;9.218;2023-02-10T04:11:48;-23059.91;;;-3.41;100.00
29385;BME280;16367;48.736;9.218;2023-02-10T04:13:51;-23060.72;;;-3.38;100.00
29385;BME280;16367;48.736;9.218;2023-02-10T04:16:02;-23063.91;;;-3.28;100.00
29385;BME280;16367;48.736;9.218;2023-02-10T04:18:05;-23066.47;;;-3.20;100.00
29385;BME280;16367;48.736;9.218;2023-02-10T04:20:08;-23064.41;;;-3.27;100.00
29385;BME280;16367;48.736;9.218;2023-02-10T04:22:11;-23063.91;;;-3.28;100.00
29385;BME280;16367;48.736;9.218;2023-02-10T04:24:14;-23062.97;;;-3.31;100.00
29385;BME280;16367;48.736;9.218;2023-02-10T04:26:18;-23062.31;;;-3.33;100.00
29385;BME280;16367;48.736;9.218;2023-02-10T04:28:20;-23065.34;;;-3.24;100.00
29385;BME280;16367;48.736;9.218;2023-02-10T04:30:23;-23063.91;;;-3.28;100.00
29385;BME280;16367;48.736;9.218;2023-02-10T04:32:26;-23064.56;;;-3.26;100.00
29385;BME280;16367;48.736;9.218;2023-02-10T04:34:29;-23062.97;;;-3.31;100.00
29385;BME280;16367;48.736;9.218;2023-02-10T04:36:31;-23062.81;;;-3.32;100.00
29385;BME280;16367;48.736;9.218;2023-02-10T04:38:34;-23060.41;;;-3.39;100.00
29385;BME280;16367;48.736;9.218;2023-02-10T04:40:37;-23061.53;;;-3.36;100.00
29385;BME280;16367;48.736;9.218;2023-02-10T04:42:42;-23060.06;;;-3.40;100.00
29385;BME280;16367;48.736;9.218;2023-02-10T04:44:45;-23060.72;;;-3.38;100.00
29385;BME280;16367;48.736;9.218;2023-02-10T04:46:47;-23060.41;;;-3.39;100.00
29385;BME280;16367;48.736;9.218;2023-02-10T04:48:51;-23058.47;;;-3.45;100.00
29385;BME280;16367;48.736;9.218;2023-02-10T04:50:54;-23058.16;;;-3.46;100.00
29385;BME280;16367;48.736;9.218;2023-02-10T04:52:56;-23057.19;;;-3.49;100.00
29385;BME280;16367;48.736;9.218;2023-02-10T04:54:59;-23057.34;;;-3.49;100.00
29385;BME280;16367;48.736;9.218;2023-02-10T04:57:02;-23054.78;;;-3.57;100.00
29385;BME280;16367;48.736;9.218;2023-02-10T04:59:06;-23055.59;;;-3.54;100.00
29385;BME280;16367;48.736;9.218;2023-02-10T05:01:09;-23054.63;;;-3.57;100.00
29385;BME280;16367;48.736;9.218;2023-02-10T05:03:11;-23054.63;;;-3.57;100.00
29385;BME280;16367;48.736;9.218;2023-02-10T05:05:14;-23054.63;;;-3.57;100.00
29385;BME280;16367;48.736;9.218;2023-02-10T05:07:17;-23056.72;;;-3.51;100.00
29385;BME280;16367;48.736;9.218;2023-02-10T05:09:20;-23056.56;;;-3.51;100.00
29385;BME280;16367;48.736;9.218;2023-02-10T05:11:22;-23055.13;;;-3.56;100.00
29385;BME280;16367;48.736;9.218;2023-02-10T05:13:25;-23052.88;;;-3.63;100.00
29385;BME280;16367;48.736;9.218;2023-02-10T05:15:30;-23052.72;;;-3.63;100.00
29385;BME280;16367;48.736;9.218;2023-02-10T05:17:33;-23054.31;;;-3.58;100.00
29385;BME280;16367;48.736;9.218;2023-02-10T05:19:35;-23053.50;;;-3.61;100.00
29385;BME280;16367;48.736;9.218;2023-02-10T05:21:38;-23050.16;;;-3.71;100.00
29385;BME280;16367;48.736;9.218;2023-02-10T05:23:41;-23049.50;;;-3.73;100.00
29385;BME280;16367;48.736;9.218;2023-02-10T05:25:43;-23050.78;;;-3.69;100.00
29385;BME280;16367;48.736;9.218;2023-02-10T05:27:46;-23052.06;;;-3.65;100.00
29385;BME280;16367;48.736;9.218;2023-02-10T05:29:49;-23053.50;;;-3.61;100.00
29385;BME280;16367;48.736;9.218;2023-02-10T05:31:54;-23052.88;;;-3.63;100.00
29385;BME280;16367;48.736;9.218;2023-02-10T05:33:56;-23053.34;;;-3.61;100.00
29385;BME280;16367;48.736;9.218;2023-02-10T05:35:59;-23053.84;;;-3.60;100.00
29385;BME280;16367;48.736;9.218;2023-02-10T05:38:02;-23053.34;;;-3.61;100.00
29385;BME280;16367;48.736;9.218;2023-02-10T05:40:05;-23051.75;;;-3.66;100.00
29385;BME280;16367;48.736;9.218;2023-02-10T05:42:08;-23051.59;;;-3.67;100.00
29385;BME280;16367;48.736;9.218;2023-02-10T05:44:11;-23051.59;;;-3.67;100.00
29385;BME280;16367;48.736;9.218;2023-02-10T05:46:13;-23051.09;;;-3.68;100.00
29385;BME280;16367;48.736;9.218;2023-02-10T05:48:18;-23050.78;;;-3.69;100.00
29385;BME280;16367;48.736;9.218;2023-02-10T05:50:20;-23050.47;;;-3.70;100.00
29385;BME280;16367;48.736;9.218;2023-02-10T05:52:23;-23049.81;;;-3.72;100.00
29385;BME280;16367;48.736;9.218;2023-02-10T05:54:26;-23048.53;;;-3.77;100.00
29385;BME280;16367;48.736;9.218;2023-02-10T05:56:28;-23047.59;;;-3.80;100.00
29385;BME280;16367;48.736;9.218;2023-02-10T05:58:31;-23047.25;;;-3.81;100.00
29385;BME280;16367;48.736;9.218;2023-02-10T06:00:35;-23046.28;;;-3.84;100.00
29385;BME280;16367;48.736;9.218;2023-02-10T06:02:37;-23044.38;;;-3.90;100.00
29385;BME280;16367;48.736;9.218;2023-02-10T06:04:41;-23042.13;;;-3.97;100.00
29385;BME280;16367;48.736;9.218;2023-02-10T06:06:44;-23043.25;;;-3.93;100.00
29385;BME280;16367;48.736;9.218;2023-02-10T06:08:47;-23038.94;;;-4.07;100.00
29385;BME280;16367;48.736;9.218;2023-02-10T06:10:49;-23038.59;;;-4.08;100.00
29385;BME280;16367;48.736;9.218;2023-02-10T06:12:52;-23036.22;;;-4.15;100.00
29385;BME280;16367;48.736;9.218;2023-02-10T06:14:55;-23036.84;;;-4.13;100.00
29385;BME280;16367;48.736;9.218;2023-02-10T06:16:58;-23034.75;;;-4.20;100.00
29385;BME280;16367;48.736;9.218;2023-02-10T06:19:01;-23036.69;;;-4.14;100.00
29385;BME280;16367;48.736;9.218;2023-02-10T06:21:06;-23036.38;;;-4.15;100.00
29385;BME280;16367;48.736;9.218;2023-02-10T06:23:09;-23035.56;;;-4.17;100.00
29385;BME280;16367;48.736;9.218;2023-02-10T06:25:12;-23032.50;;;-4.27;100.00
29385;BME280;16367;48.736;9.218;2023-02-10T06:27:15;-23031.25;;;-4.31;100.00
29385;BME280;16367;48.736;9.218;2023-02-10T06:29:18;-23035.06;;;-4.19;100.00
29385;BME280;16367;48.736;9.218;2023-02-10T06:31:21;-23033.47;;;-4.24;100.00
29385;BME280;16367;48.736;9.218;2023-02-10T06:33:25;-23033.97;;;-4.22;100.00
29385;BME280;16367;48.736;9.218;2023-02-10T06:35:28;-23035.41;;;-4.18;100.00
29385;BME280;16367;48.736;9.218;2023-02-10T06:37:32;-23032.84;;;-4.26;100.00
29385;BME280;16367;48.736;9.218;2023-02-10T06:39:34;-23033.47;;;-4.24;100.00
29385;BME280;16367;48.736;9.218;2023-02-10T06:41:37;-23037.00;;;-4.13;100.00
29385;BME280;16367;48.736;9.218;2023-02-10T06:43:40;-23032.84;;;-4.26;100.00
29385;BME280;16367;48.736;9.218;2023-02-10T06:45:42;-23030.28;;;-4.34;100.00
29385;BME280;16367;48.736;9.218;2023-02-10T06:47:45;-23027.38;;;-4.43;100.00
29385;BME280;16367;48.736;9.218;2023-02-10T06:49:48;-23027.72;;;-4.42;100.00
29385;BME280;16367;48.736;9.218;2023-02-10T06:51:51;-23028.69;;;-4.39;100.00
29385;BME280;16367;48.736;9.218;2023-02-10T06:53:55;-23027.88;;;-4.41;100.00
29385;BME280;16367;48.736;9.218;2023-02-10T06:55:58;-23027.38;;;-4.43;100.00
29385;BME280;16367;48.736;9.218;2023-02-10T06:58:01;-23024.03;;;-4.54;100.00
29385;BME280;16367;48.736;9.218;2023-02-10T07:00:05;-23019.38;;;-4.68;100.00
29385;BME280;16367;48.736;9.218;2023-02-10T07:02:10;-23021.94;;;-4.60;100.00
29385;BME280;16367;48.736;9.218;2023-02-10T07:04:13;-23027.06;;;-4.44;100.00
29385;BME280;16367;48.736;9.218;2023-02-10T07:06:16;-23030.59;;;-4.33;100.00
29385;BME280;16367;48.736;9.218;2023-02-10T07:08:19;-23033.47;;;-4.24;100.00
29385;BME280;16367;48.736;9.218;2023-02-10T07:10:23;-23035.41;;;-4.18;100.00
29385;BME280;16367;48.736;9.218;2023-02-10T07:12:26;-23033.78;;;-4.23;100.00
29385;BME280;16367;48.736;9.218;2023-02-10T07:14:29;-23034.75;;;-4.20;100.00
29385;BME280;16367;48.736;9.218;2023-02-10T07:16:31;-23037.97;;;-4.10;100.00
29385;BME280;16367;48.736;9.218;2023-02-10T07:18:35;-23040.53;;;-4.02;100.00
29385;BME280;16367;48.736;9.218;2023-02-10T07:20:38;-23037.66;;;-4.11;100.00
29385;BME280;16367;48.736;9.218;2023-02-10T07:22:40;-23040.22;;;-4.03;100.00
29385;BME280;16367;48.736;9.218;2023-02-10T07:24:43;-23041.66;;;-3.98;100.00
29385;BME280;16367;48.736;9.218;2023-02-10T07:26:47;-23043.09;;;-3.94;100.00
29385;BME280;16367;48.736;9.218;2023-02-10T07:28:50;-23038.75;;;-4.07;100.00
29385;BME280;16367;48.736;9.218;2023-02-10T07:30:52;-23039.72;;;-4.04;100.00
29385;BME280;16367;48.736;9.218;2023-02-10T07:32:55;-23036.38;;;-4.15;100.00
29385;BME280;16367;48.736;9.218;2023-02-10T07:34:58;-23043.72;;;-3.92;100.00
29385;BME280;16367;48.736;9.218;2023-02-10T07:37:01;-23046.47;;;-3.83;100.00
29385;BME280;16367;48.736;9.218;2023-02-10T07:39:03;-23045.97;;;-3.85;100.00
29385;BME280;16367;48.736;9.218;2023-02-10T07:41:06;-23045.81;;;-3.85;100.00
29385;BME280;16367;48.736;9.218;2023-02-10T07:43:11;-23046.94;;;-3.82;100.00
29385;BME280;16367;48.736;9.218;2023-02-10T07:45:13;-23055.13;;;-3.56;100.00
29385;BME280;16367;48.736;9.218;2023-02-10T07:47:16;-23053.66;;;-3.60;100.00
29385;BME280;16367;48.736;9.218;2023-02-10T07:49:19;-23059.75;;;-3.41;100.00
29385;BME280;16367;48.736;9.218;2023-02-10T07:51:21;-23066.16;;;-3.21;100.00
29385;BME280;16367;48.736;9.218;2023-02-10T07:53:24;-23063.44;;;-3.30;100.00
29385;BME280;16367;48.736;9.218;2023-02-10T07:55:27;-23067.44;;;-3.17;100.00
29385;BME280;16367;48.736;9.218;2023-02-10T07:57:30;-23061.19;;;-3.37;100.00
29385;BME280;16367;48.736;9.218;2023-02-10T07:59:34;-23075.28;;;-2.92;100.00
29385;BME280;16367;48.736;9.218;2023-02-10T08:01:36;-23099.47;;;-2.16;100.00
29385;BME280;16367;48.736;9.218;2023-02-10T08:03:43;-23103.63;;;-2.03;100.00
29385;BME280;16367;48.736;9.218;2023-02-10T08:05:46;-23098.19;;;-2.20;100.00
29385;BME280;16367;48.736;9.218;2023-02-10T08:07:50;-23103.63;;;-2.03;100.00
29385;BME280;16367;48.736;9.218;2023-02-10T08:09:53;-23128.09;;;-1.26;98.46
29385;BME280;16367;48.736;9.218;2023-02-10T08:11:56;-23101.06;;;-2.11;99.00
29385;BME280;16367;48.736;9.218;2023-02-10T08:14:00;-23101.38;;;-2.10;99.56
29385;BME280;16367;48.736;9.218;2023-02-10T08:16:06;-23115.31;;;-1.67;98.31
29385;BME280;16367;48.736;9.218;2023-02-10T08:18:09;-23129.84;;;-1.21;95.01
29385;BME280;16367;48.736;9.218;2023-02-10T08:20:12;-23130.50;;;-1.19;95.59
29385;BME280;16367;48.736;9.218;2023-02-10T08:22:15;-23133.84;;;-1.08;94.99
29385;BME280;16367;48.736;9.218;2023-02-10T08:24:17;-23132.56;;;-1.12;93.22
29385;BME280;16367;48.736;9.218;2023-02-10T08:26:21;-23128.25;;;-1.26;93.18
29385;BME280;16367;48.736;9.218;2023-02-10T08:28:24;-23153.69;;;-0.46;89.58
29385;BME280;16367;48.736;9.218;2023-02-10T08:30:27;-23192.50;;;0.77;86.79
29385;BME280;16367;48.736;9.218;2023-02-10T08:32:31;-23181.00;;;0.40;81.24
29385;BME280;16367;48.736;9.218;2023-02-10T08:34:34;-23167.91;;;-0.01;85.14
29385;BME280;16367;48.736;9.218;2023-02-10T08:36:38;-23172.38;;;0.13;82.84
29385;BME280;16367;48.736;9.218;2023-02-10T08:38:40;-23156.06;;;-0.38;84.86
29385;BME280;16367;48.736;9.218;2023-02-10T08:40:43;-23187.72;;;0.61;81.93
29385;BME280;16367;48.736;9.218;2023-02-10T08:42:46;-23188.34;;;0.63;79.39
29385;BME280;16367;48.736;9.218;2023-02-10T08:44:49;-23166.94;;;-0.04;82.13
29385;BME280;16367;48.736;9.218;2023-02-10T08:46:51;-23189.31;;;0.66;79.75
29385;BME280;16367;48.736;9.218;2023-02-10T08:48:56;-23190.91;;;0.71;80.10
29385;BME280;16367;48.736;9.218;2023-02-10T08:51:05;-23204.31;;;1.14;77.71
29385;BME280;16367;48.736;9.218;2023-02-10T08:53:09;-23161.03;;;-0.23;81.42
29385;BME280;16367;48.736;9.218;2023-02-10T08:55:11;-23165.34;;;-0.09;82.39
29385;BME280;16367;48.736;9.218;2023-02-10T08:57:14;-23240.56;;;2.28;77.43
29385;BME280;16367;48.736;9.218;2023-02-10T08:59:17;-23208.16;;;1.26;76.74
29385;BME280;16367;48.736;9.218;2023-02-10T09:01:21;-23233.69;;;2.06;76.32
29385;BME280;16367;48.736;9.218;2023-02-10T09:03:27;-23204.63;;;1.15;75.35
29385;BME280;16367;48.736;9.218;2023-02-10T09:05:34;-23269.72;;;3.20;73.67
29385;BME280;16367;48.736;9.218;2023-02-10T09:07:37;-23296.50;;;4.05;66.30
29385;BME280;16367;48.736;9.218;2023-02-10T09:09:41;-23296.03;;;4.03;64.60
29385;BME280;16367;48.736;9.218;2023-02-10T09:11:44;-23272.28;;;3.28;64.60
29385;BME280;16367;48.736;9.218;2023-02-10T09:13:47;-23252.34;;;2.65;68.17
29385;BME280;16367;48.736;9.218;2023-02-10T09:15:50;-23297.78;;;4.09;65.93
29385;BME280;16367;48.736;9.218;2023-02-10T09:17:52;-23305.09;;;4.32;62.45
29385;BME280;16367;48.736;9.218;2023-02-10T09:19:55;-23275.94;;;3.40;66.22
29385;BME280;16367;48.736;9.218;2023-02-10T09:21:59;-23261.59;;;2.94;66.03
29385;BME280;16367;48.736;9.218;2023-02-10T09:24:02;-23266.88;;;3.11;67.18
29385;BME280;16367;48.736;9.218;2023-02-10T09:26:05;-23293.00;;;3.94;66.70
29385;BME280;16367;48.736;9.218;2023-02-10T09:28:07;-23255.06;;;2.74;67.31
29385;BME280;16367;48.736;9.218;2023-02-10T09:30:11;-23256.81;;;2.79;68.39
29385;BME280;16367;48.736;9.218;2023-02-10T09:32:13;-23290.75;;;3.87;65.46
29385;BME280;16367;48.736;9.218;2023-02-10T09:34:16;-23309.88;;;4.47;63.86
29385;BME280;16367;48.736;9.218;2023-02-10T09:36:19;-23365.56;;;6.23;58.86
29385;BME280;16367;48.736;9.218;2023-02-10T09:38:24;-23344.72;;;5.57;58.68
29385;BME280;16367;48.736;9.218;2023-02-10T09:40:29;-23294.28;;;3.98;62.72
29385;BME280;16367;48.736;9.218;2023-02-10T09:42:38;-23291.41;;;3.89;63.46
29385;BME280;16367;48.736;9.218;2023-02-10T09:44:47;-23299.53;;;4.14;63.84
29385;BME280;16367;48.736;9.218;2023-02-10T09:49:33;-23296.19;;;4.04;62.45
29385;BME280;16367;48.736;9.218;2023-02-10T09:51:43;-23272.13;;;3.28;64.42
29385;BME280;16367;48.736;9.218;2023-02-10T09:53:51;-23294.75;;;3.99;64.13
29385;BME280;16367;48.736;9.218;2023-02-10T09:55:56;-23322.94;;;4.88;62.99
29385;BME280;16367;48.736;9.218;2023-02-10T09:58:01;-23309.25;;;4.45;62.81
29385;BME280;16367;48.736;9.218;2023-02-10T10:00:16;-23313.38;;;4.58;62.81
29385;BME280;16367;48.736;9.218;2023-02-10T10:02:28;-23284.72;;;3.67;66.06
29385;BME280;16367;48.736;9.218;2023-02-10T10:04:33;-23289.81;;;3.84;66.25
29385;BME280;16367;48.736;9.218;2023-02-10T10:06:38;-23244.38;;;2.40;69.32
29385;BME280;16367;48.736;9.218;2023-02-10T10:08:50;-23240.88;;;2.29;70.17
29385;BME280;16367;48.736;9.218;2023-02-10T10:11:01;-23232.91;;;2.04;72.68
29385;BME280;16367;48.736;9.218;2023-02-10T10:13:10;-23235.59;;;2.12;72.22
29385;BME280;16367;48.736;9.218;2023-02-10T10:15:16;-23262.88;;;2.98;70.68
29385;BME280;16367;48.736;9.218;2023-02-10T10:17:33;-23302.56;;;4.24;68.14
29385;BME280;16367;48.736;9.218;2023-02-10T10:19:52;-23312.09;;;4.54;66.49
29385;BME280;16367;48.736;9.218;2023-02-10T10:22:09;-23321.66;;;4.84;66.73
29385;BME280;16367;48.736;9.218;2023-02-10T10:24:31;-23295.22;;;4.01;68.17
29385;BME280;16367;48.736;9.218;2023-02-10T10:26:47;-23296.81;;;4.06;67.53
29385;BME280;16367;48.736;9.218;2023-02-10T10:29:00;-23283.28;;;3.63;69.30
29385;BME280;16367;48.736;9.218;2023-02-10T10:31:08;-23273.88;;;3.33;71.77
29385;BME280;16367;48.736;9.218;2023-02-10T10:33:20;-23275.31;;;3.38;71.21
29385;BME280;16367;48.736;9.218;2023-02-10T10:35:26;-23277.38;;;3.44;72.39
29385;BME280;16367;48.736;9.218;2023-02-10T10:37:31;-23286.94;;;3.74;70.55
29385;BME280;16367;48.736;9.218;2023-02-10T10:39:35;-23287.75;;;3.77;70.33
29385;BME280;16367;48.736;9.218;2023-02-10T10:41:44;-23286.47;;;3.73;69.49
29385;BME280;16367;48.736;9.218;2023-02-10T10:43:49;-23293.16;;;3.94;69.64
29385;BME280;16367;48.736;9.218;2023-02-10T10:45:55;-23294.91;;;4.00;68.04
29385;BME280;16367;48.736;9.218;2023-02-10T10:48:07;-23301.44;;;4.20;68.59
29385;BME280;16367;48.736;9.218;2023-02-10T10:50:13;-23309.41;;;4.45;67.88
29385;BME280;16367;48.736;9.218;2023-02-10T10:52:26;-23325.47;;;4.96;66.25
29385;BME280;16367;48.736;9.218;2023-02-10T10:54:30;-23297.78;;;4.09;66.22
29385;BME280;16367;48.736;9.218;2023-02-10T10:56:37;-23330.88;;;5.13;65.20
29385;BME280;16367;48.736;9.218;2023-02-10T10:58:45;-23299.69;;;4.15;66.90
29385;BME280;16367;48.736;9.218;2023-02-10T11:00:50;-23295.06;;;4.00;66.78